Time;durP1;ratioP1;P1;durP2;ratioP2;P2;SDS_P1;SDS_P2;PMS_P1;PMS_P2;Temp;Humidity;BMP_temperature;BMP_pressure;BME280_temperature;BME280_humidity;BME280_pressure;Samples;Min_cycle;Max_cycle;Signal;HPM_P1;HPM_P2
2022/01/12 00:01:06;;;;;;;8.13;6.90;;;0.40;99.90;;;;;;5015002;28;20218;-79
2022/01/12 00:03:34;;;;;;;7.80;6.15;;;0.30;99.90;;;;;;5015737;28;20722;-79
2022/01/12 00:06:01;;;;;;;9.80;7.70;;;0.20;99.90;;;;;;5015642;28;20256;-79
2022/01/12 00:08:29;;;;;;;7.60;6.70;;;0.20;99.90;;;;;;5015504;28;20211;-79
2022/01/12 00:10:57;;;;;;;6.95;6.20;;;0.20;99.90;;;;;;5014770;28;20206;-79
2022/01/12 00:13:24;;;;;;;8.90;7.18;;;0.10;99.90;;;;;;5014869;28;20218;-79
2022/01/12 00:15:51;;;;;;;9.07;6.70;;;0.10;99.90;;;;;;5015241;28;20317;-79
2022/01/12 00:18:17;;;;;;;10.38;7.85;;;0.10;99.90;;;;;;5014924;28;20687;-79
2022/01/12 00:20:44;;;;;;;8.20;6.68;;;0.00;99.90;;;;;;5014636;28;20214;-79
2022/01/12 00:23:11;;;;;;;7.85;7.07;;;0.00;99.90;;;;;;5015118;28;20219;-79
2022/01/12 00:25:57;;;;;;;11.25;7.60;;;0.00;99.90;;;;;;5014808;28;20214;-79
2022/01/12 00:33:55;;;;;;;9.45;8.15;;;0.00;99.90;;;;;;5014555;28;20203;-79
2022/01/12 00:36:22;;;;;;;9.13;8.05;;;-0.10;99.90;;;;;;5015054;28;20227;-79
2022/01/12 00:38:49;;;;;;;13.90;7.00;;;-0.10;99.90;;;;;;5014699;28;20207;-79
2022/01/12 00:41:17;;;;;;;8.90;7.28;;;0.00;99.90;;;;;;5014491;28;20203;-79
2022/01/12 00:43:49;;;;;;;7.90;6.95;;;0.00;99.90;;;;;;5014527;28;20590;-79
2022/01/12 00:46:16;;;;;;;6.97;6.38;;;0.00;99.90;;;;;;5014782;28;20187;-79
2022/01/12 00:48:43;;;;;;;7.68;6.47;;;0.00;99.90;;;;;;5014296;28;20207;-79
2022/01/12 00:51:11;;;;;;;12.93;7.90;;;0.00;99.90;;;;;;5014431;28;20206;-79
2022/01/12 00:53:38;;;;;;;8.07;7.22;;;0.00;99.90;;;;;;5014085;28;20230;-79
2022/01/12 00:56:05;;;;;;;9.32;6.00;;;0.00;99.90;;;;;;5013946;28;20227;-79
2022/01/12 00:58:32;;;;;;;11.63;7.93;;;0.00;99.90;;;;;;5014111;28;20199;-79
2022/01/12 01:01:00;;;;;;;7.78;7.20;;;0.10;99.90;;;;;;5013901;28;20218;-79
2022/01/12 01:03:28;;;;;;;9.68;7.07;;;0.00;99.90;;;;;;5013485;28;20214;-79
2022/01/12 01:05:55;;;;;;;10.25;6.35;;;-0.20;99.90;;;;;;5013903;28;20203;-79
2022/01/12 01:08:22;;;;;;;7.38;6.47;;;-0.30;99.90;;;;;;5013990;28;20222;-79
2022/01/12 01:10:51;;;;;;;10.95;7.60;;;-0.20;99.90;;;;;;5013573;28;20202;-79
2022/01/12 01:13:23;;;;;;;7.68;6.65;;;-0.20;99.90;;;;;;5027316;23;20285;-78
2022/01/12 01:16:00;;;;;;;7.47;6.78;;;-0.20;99.90;;;;;;5013089;28;20216;-81
2022/01/12 01:26:43;;;;;;;7.53;6.25;;;-0.20;99.90;;;;;;4995110;28;20183;-81
2022/01/12 01:29:10;;;;;;;8.52;7.30;;;-0.20;99.90;;;;;;4994902;28;20212;-80
2022/01/12 01:31:39;;;;;;;8.18;7.13;;;-0.20;99.90;;;;;;4995085;28;20235;-80
2022/01/12 01:34:09;;;;;;;13.50;7.10;;;-0.20;99.90;;;;;;5009486;28;20207;-80
2022/01/12 01:36:38;;;;;;;7.60;6.30;;;-0.20;99.90;;;;;;5010515;28;20214;-80
2022/01/12 01:39:06;;;;;;;14.13;7.90;;;-0.20;99.90;;;;;;4995946;28;20208;-79
2022/01/12 01:41:32;;;;;;;8.57;7.68;;;-0.30;99.90;;;;;;4994850;28;20232;-80
2022/01/12 01:55:21;;;;;;;8.23;7.25;;;-0.30;99.90;;;;;;4992074;28;20238;-79
2022/01/12 01:57:49;;;;;;;8.77;7.93;;;-0.30;99.90;;;;;;5001910;28;20215;-79
2022/01/12 02:00:22;;;;;;;10.55;8.40;;;-0.30;99.90;;;;;;4995466;28;20208;-81
2022/01/12 02:02:50;;;;;;;11.18;8.00;;;-0.30;99.90;;;;;;4995097;28;20266;-81
2022/01/12 02:05:18;;;;;;;9.07;8.18;;;-0.30;99.90;;;;;;4994813;28;20207;-81
2022/01/12 02:07:45;;;;;;;10.75;7.85;;;-0.30;99.90;;;;;;4994846;28;20219;-80
2022/01/12 02:10:12;;;;;;;8.35;7.28;;;-0.30;99.90;;;;;;5009621;28;20618;-80
2022/01/12 02:12:38;;;;;;;9.80;8.05;;;-0.30;99.90;;;;;;5014515;28;20286;-81
2022/01/12 02:15:14;;;;;;;11.13;8.73;;;-0.30;99.90;;;;;;4999865;28;20204;-81
2022/01/12 02:17:54;;;;;;;7.97;6.40;;;-0.30;99.90;;;;;;5012522;28;20198;-81
2022/01/12 02:35:12;;;;;;;15.20;7.85;;;-0.30;99.90;;;;;;4997947;28;20207;-82
2022/01/12 02:40:07;;;;;;;9.48;8.48;;;-0.50;99.90;;;;;;5007535;28;20188;-83
2022/01/12 02:42:36;;;;;;;12.43;9.40;;;-0.70;99.90;;;;;;4993903;28;20239;-82
2022/01/12 02:50:46;;;;;;;8.88;7.38;;;-0.90;99.90;;;;;;4996763;28;20190;-80
2022/01/12 02:56:00;;;;;;;7.45;6.75;;;-0.80;99.90;;;;;;4995439;28;20218;-80
2022/01/12 02:58:26;;;;;;;11.48;8.07;;;-0.80;99.90;;;;;;4998157;28;20211;-81
2022/01/12 03:01:10;;;;;;;10.63;8.10;;;-0.80;99.90;;;;;;5000937;28;20207;-81
2022/01/12 03:03:38;;;;;;;10.20;9.13;;;-0.80;99.90;;;;;;4998746;28;20243;-82
2022/01/12 03:06:07;;;;;;;8.43;7.38;;;-0.80;99.90;;;;;;5009896;28;20195;-81
2022/01/12 03:08:37;;;;;;;16.08;10.25;;;-0.80;99.90;;;;;;5000552;28;20239;-81
2022/01/12 03:11:06;;;;;;;10.90;8.43;;;-0.80;99.90;;;;;;4998210;28;20720;-81
2022/01/12 03:13:34;;;;;;;9.18;8.30;;;-0.80;99.90;;;;;;4997909;28;20231;-82
2022/01/12 03:16:02;;;;;;;9.50;7.95;;;-0.80;99.90;;;;;;4998002;28;20231;-82
2022/01/12 03:18:29;;;;;;;10.05;8.40;;;-0.90;99.90;;;;;;4999068;28;20302;-82
2022/01/12 03:20:55;;;;;;;8.80;7.90;;;-1.00;99.90;;;;;;5001082;28;20204;-82
2022/01/12 03:23:22;;;;;;;9.50;8.50;;;-1.10;99.90;;;;;;5002242;28;20227;-81
2022/01/12 03:25:49;;;;;;;11.18;8.68;;;-1.10;99.90;;;;;;5011506;28;20207;-80
2022/01/12 03:28:17;;;;;;;9.63;7.15;;;-1.00;99.90;;;;;;5020205;28;20680;-81
2022/01/12 03:30:52;;;;;;;10.18;8.73;;;-1.00;99.90;;;;;;5018022;28;20699;-81
2022/01/12 03:33:34;;;;;;;8.75;7.95;;;-0.90;99.90;;;;;;5015178;28;20230;-83
2022/01/12 03:36:24;;;;;;;9.38;8.45;;;-0.90;99.90;;;;;;4998162;28;20815;-81
2022/01/12 03:38:52;;;;;;;13.15;8.50;;;-0.90;99.90;;;;;;5004775;28;20191;-82
2022/01/12 03:41:20;;;;;;;9.35;8.32;;;-0.90;99.90;;;;;;5017297;28;20215;-81
2022/01/12 03:43:48;;;;;;;8.95;8.05;;;-0.90;99.90;;;;;;5012078;28;20204;-82
2022/01/12 03:46:18;;;;;;;9.35;7.82;;;-1.00;99.90;;;;;;4998007;28;20208;-82
2022/01/12 03:48:45;;;;;;;8.70;7.80;;;-1.00;99.90;;;;;;4997870;28;20211;-83
2022/01/12 03:51:11;;;;;;;15.10;8.90;;;-1.00;99.90;;;;;;4997584;28;20207;-81
2022/01/12 03:53:38;;;;;;;9.60;8.57;;;-1.00;99.90;;;;;;5009578;28;20215;-83
2022/01/12 03:56:05;;;;;;;8.95;8.07;;;-0.90;99.90;;;;;;5017429;28;20640;-82
2022/01/12 03:58:32;;;;;;;9.65;7.85;;;-0.90;99.90;;;;;;5017278;28;20492;-80
2022/01/12 04:01:00;;;;;;;9.82;8.75;;;-0.90;99.90;;;;;;5017345;28;20211;-82
2022/01/12 04:03:28;;;;;;;9.30;8.27;;;-1.10;99.90;;;;;;5016289;28;20223;-81
2022/01/12 04:08:39;;;;;;;9.63;8.00;;;-1.10;99.90;;;;;;5016449;28;20186;-81
2022/01/12 04:11:06;;;;;;;12.00;9.50;;;-1.00;99.90;;;;;;5016842;28;20207;-80
2022/01/12 04:13:33;;;;;;;14.60;8.82;;;-1.00;99.90;;;;;;5012870;28;20608;-81
2022/01/12 04:16:03;;;;;;;11.75;9.20;;;-1.00;99.90;;;;;;5017662;28;20237;-82
2022/01/12 04:18:30;;;;;;;9.50;8.38;;;-1.00;99.90;;;;;;4997731;28;20204;-82
2022/01/12 04:21:00;;;;;;;9.93;8.93;;;-1.10;99.90;;;;;;4997496;28;20215;-82
2022/01/12 04:23:27;;;;;;;11.57;8.70;;;-1.10;99.90;;;;;;4997464;28;20235;-83
2022/01/12 04:25:57;;;;;;;12.10;8.73;;;-1.10;99.90;;;;;;4997835;28;20259;-82
2022/01/12 04:28:24;;;;;;;10.40;7.70;;;-1.20;99.90;;;;;;5012093;28;20215;-82
2022/01/12 04:30:53;;;;;;;12.43;9.35;;;-1.20;99.90;;;;;;4997485;28;20208;-83
2022/01/12 04:33:21;;;;;;;12.65;10.07;;;-1.20;99.90;;;;;;5013550;28;20234;-83
2022/01/12 04:35:52;;;;;;;8.75;7.95;;;-1.20;99.90;;;;;;5016898;28;20699;-81
2022/01/12 04:38:21;;;;;;;11.60;9.55;;;-1.30;99.90;;;;;;5002325;28;20196;-82
2022/01/12 04:40:48;;;;;;;11.63;8.55;;;-1.20;99.90;;;;;;4997477;28;20210;-81
2022/01/12 04:43:16;;;;;;;9.80;8.80;;;-1.20;99.90;;;;;;5011405;28;20576;-83
2022/01/12 04:45:58;;;;;;;11.85;8.70;;;-1.20;99.90;;;;;;5022917;28;20210;-80
2022/01/12 04:48:37;;;;;;;10.63;9.05;;;-1.20;99.90;;;;;;5022228;28;20272;-82
2022/01/12 04:51:04;;;;;;;16.02;8.85;;;-1.20;99.90;;;;;;5019186;28;20194;-82
2022/01/12 04:53:32;;;;;;;12.27;9.80;;;-1.20;99.90;;;;;;4998258;28;20725;-82
2022/01/12 04:55:59;;;;;;;13.70;10.00;;;-1.20;99.90;;;;;;4998090;28;20230;-83
2022/01/12 04:58:27;;;;;;;10.02;8.98;;;-1.20;99.90;;;;;;4997853;28;20210;-83
2022/01/12 05:00:58;;;;;;;11.68;8.52;;;-1.20;99.90;;;;;;4997432;28;20275;-83
2022/01/12 05:06:39;;;;;;;12.90;9.70;;;-1.20;99.90;;;;;;5018071;28;20233;-82
2022/01/12 05:09:16;;;;;;;10.43;9.15;;;-1.20;99.90;;;;;;4978394;28;20666;-82
2022/01/12 05:14:36;;;;;;;11.73;10.52;;;-1.20;99.90;;;;;;4982013;28;20196;-82
2022/01/12 05:17:03;;;;;;;11.45;8.88;;;-1.30;99.90;;;;;;5017037;28;20676;-82
2022/01/12 05:19:31;;;;;;;12.32;10.02;;;-1.30;99.90;;;;;;5017244;28;20210;-82
2022/01/12 05:21:57;;;;;;;10.65;9.60;;;-1.30;99.90;;;;;;5016262;28;20235;-83
2022/01/12 05:24:24;;;;;;;11.45;9.43;;;-1.30;99.90;;;;;;5001746;28;20235;-83
2022/01/12 05:26:51;;;;;;;12.88;10.90;;;-1.30;99.90;;;;;;4998125;28;20208;-82
2022/01/12 05:29:17;;;;;;;14.95;11.75;;;-1.30;99.90;;;;;;5013655;28;20210;-82
2022/01/12 05:31:44;;;;;;;13.35;10.40;;;-1.30;99.90;;;;;;5017421;28;20242;-83
2022/01/12 05:34:11;;;;;;;12.63;10.48;;;-1.30;99.90;;;;;;5017578;28;20207;-83
2022/01/12 05:36:39;;;;;;;13.05;11.15;;;-1.30;99.90;;;;;;4998718;28;20238;-83
2022/01/12 05:39:06;;;;;;;14.80;11.90;;;-1.30;99.90;;;;;;4997949;28;20700;-82
2022/01/12 05:41:32;;;;;;;15.10;12.13;;;-1.30;99.90;;;;;;4997899;28;20236;-83
2022/01/12 05:43:59;;;;;;;13.25;10.77;;;-1.30;99.90;;;;;;4998538;28;20207;-83
2022/01/12 05:46:27;;;;;;;18.63;13.48;;;-1.30;99.90;;;;;;5009641;28;20203;-83
2022/01/12 05:51:41;;;;;;;16.65;12.68;;;-1.30;99.90;;;;;;5020387;28;20285;-81
2022/01/12 05:54:07;;;;;;;17.85;12.98;;;-1.40;99.90;;;;;;5020892;28;20203;-82
2022/01/12 05:56:34;;;;;;;18.00;14.68;;;-1.40;99.90;;;;;;5017042;28;20245;-82
2022/01/12 05:59:01;;;;;;;17.75;13.20;;;-1.40;99.90;;;;;;5018101;28;20211;-83
2022/01/12 06:01:28;;;;;;;21.95;15.20;;;-1.50;99.90;;;;;;5016937;28;20210;-82
2022/01/12 06:03:55;;;;;;;21.58;15.15;;;-1.50;99.90;;;;;;5017151;28;20214;-82
2022/01/12 06:06:21;;;;;;;16.05;13.02;;;-1.50;99.90;;;;;;5009374;28;20203;-81
2022/01/12 06:08:49;;;;;;;17.48;13.73;;;-1.50;99.90;;;;;;4998815;28;20219;-82
2022/01/12 06:11:16;;;;;;;16.17;13.38;;;-1.50;99.90;;;;;;5015936;28;20203;-80
2022/01/12 06:13:43;;;;;;;13.90;11.90;;;-1.50;99.90;;;;;;5005127;28;20203;-80
2022/01/12 06:16:10;;;;;;;19.33;14.82;;;-1.50;99.90;;;;;;4997382;28;20203;-82
2022/01/12 06:18:36;;;;;;;17.35;14.68;;;-1.50;99.90;;;;;;5006145;28;20214;-82
2022/01/12 06:21:03;;;;;;;20.95;14.43;;;-1.50;99.90;;;;;;5015465;28;20211;-82
2022/01/12 06:23:30;;;;;;;16.17;12.77;;;-1.50;99.90;;;;;;5015654;28;20233;-82
2022/01/12 06:25:58;;;;;;;19.60;13.77;;;-1.50;99.90;;;;;;5003194;28;20596;-81
2022/01/12 06:28:38;;;;;;;16.08;13.27;;;-1.50;99.90;;;;;;5004039;28;20222;-83
2022/01/12 06:31:14;;;;;;;17.88;13.38;;;-1.50;99.90;;;;;;5000391;28;20263;-83
2022/01/12 06:33:44;;;;;;;19.60;16.02;;;-1.50;99.90;;;;;;5014548;28;20195;-81
2022/01/12 06:36:14;;;;;;;17.67;12.98;;;-1.50;99.90;;;;;;5020946;28;20294;-81
2022/01/12 06:38:41;;;;;;;22.77;14.65;;;-1.50;99.90;;;;;;5001262;28;20208;-81
2022/01/12 06:41:10;;;;;;;20.25;14.85;;;-1.50;99.90;;;;;;5000174;28;20208;-81
2022/01/12 06:43:37;;;;;;;20.67;15.38;;;-1.40;99.90;;;;;;5016409;28;20203;-82
2022/01/12 06:46:05;;;;;;;21.48;17.13;;;-1.40;99.90;;;;;;5015696;28;20214;-82
2022/01/12 06:48:32;;;;;;;18.63;15.30;;;-1.40;99.90;;;;;;5015528;28;20257;-82
2022/01/12 06:50:59;;;;;;;23.27;16.65;;;-1.40;99.90;;;;;;5015244;28;20702;-83
2022/01/12 06:53:25;;;;;;;18.85;14.32;;;-1.50;99.90;;;;;;5015369;28;20254;-82
2022/01/12 06:55:52;;;;;;;19.92;15.18;;;-1.50;99.90;;;;;;5015055;28;20816;-83
2022/01/12 06:58:20;;;;;;;21.02;15.40;;;-1.50;99.90;;;;;;4976710;28;20232;-83
2022/01/12 07:00:48;;;;;;;18.83;14.50;;;-1.50;99.90;;;;;;4982152;28;20207;-81
2022/01/12 07:03:14;;;;;;;21.10;16.23;;;-1.50;99.90;;;;;;4996117;28;20259;-80
2022/01/12 07:05:41;;;;;;;20.67;15.50;;;-1.50;99.90;;;;;;4998138;28;20204;-83
2022/01/12 07:08:08;;;;;;;25.23;16.80;;;-1.60;99.90;;;;;;5015746;28;20210;-83
2022/01/12 07:10:35;;;;;;;23.33;14.40;;;-1.60;99.90;;;;;;5015295;28;20219;-83
2022/01/12 07:13:02;;;;;;;21.52;15.60;;;-1.60;99.90;;;;;;5023753;23;20238;-82
2022/01/12 07:15:30;;;;;;;21.65;15.60;;;-1.60;99.90;;;;;;5025283;28;20211;-84
2022/01/12 07:17:56;;;;;;;24.17;15.68;;;-1.60;99.90;;;;;;5029105;28;20219;-84
2022/01/12 07:20:23;;;;;;;23.15;16.25;;;-1.60;99.90;;;;;;5035906;28;20211;-84
2022/01/12 07:22:50;;;;;;;20.35;16.42;;;-1.60;99.90;;;;;;5045170;28;20226;-82
2022/01/12 07:25:16;;;;;;;21.83;15.23;;;-1.60;99.90;;;;;;5044396;28;20566;-84
2022/01/12 07:27:43;;;;;;;19.25;15.38;;;-1.60;99.90;;;;;;5033926;28;20340;-83
2022/01/12 07:30:11;;;;;;;20.83;14.32;;;-1.60;99.90;;;;;;5037727;28;20218;-84
2022/01/12 07:32:39;;;;;;;21.13;16.60;;;-1.60;99.90;;;;;;5039957;28;20226;-84
2022/01/12 07:35:07;;;;;;;17.77;13.40;;;-1.60;99.90;;;;;;5040101;28;20265;-83
2022/01/12 07:37:34;;;;;;;21.92;18.02;;;-1.60;99.90;;;;;;5026259;28;20696;-83
2022/01/12 07:40:01;;;;;;;19.58;16.02;;;-1.60;99.90;;;;;;5039177;28;20198;-85
2022/01/12 07:42:27;;;;;;;27.80;15.20;;;-1.50;99.90;;;;;;5025710;28;20281;-84
2022/01/12 07:44:59;;;;;;;21.92;16.13;;;-1.40;99.90;;;;;;5023533;28;20203;-83
2022/01/12 07:47:26;;;;;;;25.67;19.40;;;-1.30;99.90;;;;;;5030661;28;20198;-83
2022/01/12 07:49:55;;;;;;;29.73;20.60;;;-1.20;99.90;;;;;;5042595;28;20199;-85
2022/01/12 07:52:21;;;;;;;23.10;16.60;;;-1.10;99.90;;;;;;5043629;28;20225;-85
2022/01/12 07:54:48;;;;;;;23.10;17.77;;;-1.00;99.90;;;;;;5038084;28;20199;-85
2022/01/12 07:57:16;;;;;;;22.17;17.33;;;-0.90;99.90;;;;;;5042547;28;20226;-87
2022/01/12 07:59:42;;;;;;;21.25;17.27;;;-0.90;99.90;;;;;;5040629;28;20293;-82
2022/01/12 08:02:10;;;;;;;18.13;14.75;;;-0.90;99.90;;;;;;5041026;28;20319;-84
2022/01/12 08:04:37;;;;;;;20.17;16.65;;;-0.90;99.90;;;;;;5038732;28;20208;-81
2022/01/12 08:07:06;;;;;;;18.67;15.82;;;-0.80;99.90;;;;;;5036447;28;20202;-78
2022/01/12 08:09:33;;;;;;;25.25;18.15;;;-0.70;99.90;;;;;;5038288;28;20273;-78
2022/01/12 08:12:00;;;;;;;20.92;16.35;;;-0.60;99.90;;;;;;5030211;28;20231;-78
2022/01/12 08:14:27;;;;;;;24.63;17.90;;;-0.70;99.90;;;;;;5017491;28;20556;-79
2022/01/12 08:16:53;;;;;;;19.60;15.43;;;-0.60;99.90;;;;;;5033533;28;20221;-78
2022/01/12 08:19:22;;;;;;;17.25;15.05;;;-0.60;99.90;;;;;;5034726;28;20207;-80
2022/01/12 08:21:48;;;;;;;23.73;15.18;;;-0.40;99.90;;;;;;5022776;28;20219;-78
2022/01/12 08:24:16;;;;;;;23.65;17.52;;;-0.20;99.90;;;;;;5031878;28;20210;-78
2022/01/12 08:26:44;;;;;;;17.77;13.68;;;-0.10;99.90;;;;;;5037678;28;20211;-79
2022/01/12 08:29:15;;;;;;;15.45;13.68;;;0.00;99.90;;;;;;5037641;28;20214;-78
2022/01/12 08:31:42;;;;;;;18.92;15.48;;;0.00;99.90;;;;;;5037538;28;20210;-79
2022/01/12 08:34:10;;;;;;;18.90;15.07;;;0.10;99.90;;;;;;5037705;28;20206;-79
2022/01/12 08:36:37;;;;;;;19.38;14.82;;;0.20;99.90;;;;;;5037486;28;20580;-79
2022/01/12 08:39:07;;;;;;;19.13;16.52;;;0.30;99.90;;;;;;5037369;28;20699;-78
2022/01/12 08:41:36;;;;;;;16.23;14.27;;;0.40;99.90;;;;;;5036847;28;20206;-78
2022/01/12 08:44:03;;;;;;;17.73;13.70;;;0.50;99.90;;;;;;5037403;28;20202;-79
2022/01/12 08:46:29;;;;;;;16.63;13.80;;;0.60;99.90;;;;;;5036906;28;20206;-79
2022/01/12 08:48:56;;;;;;;17.42;15.02;;;0.60;99.90;;;;;;5037422;28;20207;-79
2022/01/12 08:51:23;;;;;;;16.00;14.30;;;0.60;99.90;;;;;;5039341;28;20688;-81
2022/01/12 08:53:50;;;;;;;20.90;14.75;;;0.70;99.90;;;;;;5038948;28;20237;-81
2022/01/12 08:56:17;;;;;;;15.88;12.68;;;0.70;99.90;;;;;;5039163;28;20217;-81
2022/01/12 08:58:45;;;;;;;17.80;14.18;;;0.60;99.90;;;;;;5038625;28;20603;-82
2022/01/12 09:01:12;;;;;;;15.82;13.38;;;0.70;99.90;;;;;;5038138;28;20217;-82
2022/01/12 09:03:39;;;;;;;17.05;14.07;;;0.60;99.90;;;;;;5038960;28;20761;-81
2022/01/12 09:06:06;;;;;;;13.52;12.02;;;0.60;99.90;;;;;;5039233;28;20218;-82
2022/01/12 09:08:34;;;;;;;15.75;11.60;;;0.70;99.90;;;;;;5039304;28;20202;-80
2022/01/12 09:11:00;;;;;;;16.77;14.52;;;0.70;99.90;;;;;;5039281;28;20234;-81
2022/01/12 09:13:27;;;;;;;12.75;11.32;;;0.50;99.90;;;;;;5039383;28;20242;-81
2022/01/12 09:15:56;;;;;;;12.90;10.75;;;0.50;99.90;;;;;;5038924;28;20206;-81
2022/01/12 09:18:22;;;;;;;17.13;12.90;;;0.50;99.90;;;;;;5039418;28;20226;-82
2022/01/12 09:20:50;;;;;;;14.45;12.18;;;0.30;99.90;;;;;;5038499;28;20210;-81
2022/01/12 09:23:17;;;;;;;14.32;11.10;;;0.40;99.90;;;;;;5039280;28;20284;-82
2022/01/12 09:25:43;;;;;;;11.95;10.07;;;0.50;99.90;;;;;;5039821;28;20210;-82
2022/01/12 09:28:10;;;;;;;12.98;10.68;;;0.50;99.90;;;;;;5038962;28;20206;-81
2022/01/12 09:30:37;;;;;;;16.20;11.18;;;0.50;99.90;;;;;;5038940;28;20207;-81
2022/01/12 09:33:06;;;;;;;13.85;10.45;;;0.40;99.90;;;;;;5038722;28;20227;-81
2022/01/12 09:35:33;;;;;;;11.75;10.55;;;0.40;99.90;;;;;;5037955;28;20216;-81
2022/01/12 09:38:00;;;;;;;15.90;10.43;;;0.50;99.90;;;;;;5037492;28;20639;-81
2022/01/12 09:40:27;;;;;;;12.40;9.90;;;0.50;99.90;;;;;;5037407;28;20214;-82
2022/01/12 09:42:55;;;;;;;14.13;11.98;;;0.50;99.90;;;;;;5037770;28;20226;-82
2022/01/12 09:45:23;;;;;;;11.43;9.90;;;0.50;99.90;;;;;;5038546;28;20293;-82
2022/01/12 09:47:51;;;;;;;11.02;9.93;;;0.70;99.90;;;;;;5038760;28;20596;-82
2022/01/12 09:50:22;;;;;;;10.68;9.55;;;0.70;99.90;;;;;;5038153;28;20210;-82
2022/01/12 09:52:50;;;;;;;9.45;8.45;;;0.80;99.90;;;;;;5038246;28;20258;-81
2022/01/12 09:55:17;;;;;;;9.65;8.70;;;0.70;99.90;;;;;;5037344;28;20210;-82
2022/01/12 09:57:43;;;;;;;9.63;8.55;;;0.70;99.90;;;;;;5037452;28;20229;-81
2022/01/12 10:00:11;;;;;;;11.60;10.20;;;0.60;99.90;;;;;;5036778;28;20202;-79
2022/01/12 10:02:38;;;;;;;11.80;10.55;;;0.50;99.90;;;;;;5036128;28;20223;-79
2022/01/12 10:05:07;;;;;;;14.75;11.05;;;0.70;99.90;;;;;;5035975;28;20230;-79
2022/01/12 10:07:36;;;;;;;11.43;9.18;;;0.70;99.90;;;;;;5035782;28;20656;-79
2022/01/12 10:10:10;;;;;;;12.48;9.93;;;0.90;99.90;;;;;;5036561;28;20554;-79
2022/01/12 10:12:37;;;;;;;12.25;9.95;;;1.00;99.90;;;;;;5035632;28;20234;-79
2022/01/12 10:15:10;;;;;;;13.38;9.65;;;1.20;99.90;;;;;;5036300;28;20639;-79
2022/01/12 10:17:38;;;;;;;11.32;9.40;;;1.30;99.90;;;;;;5035537;28;20633;-79
2022/01/12 10:20:07;;;;;;;11.82;10.63;;;1.30;99.90;;;;;;5036227;28;20672;-79
2022/01/12 10:22:36;;;;;;;12.40;10.30;;;1.50;99.90;;;;;;5036211;28;20735;-79
2022/01/12 10:25:13;;;;;;;9.13;8.23;;;1.60;99.90;;;;;;5035904;28;20210;-79
2022/01/12 10:27:40;;;;;;;10.80;9.70;;;1.70;99.90;;;;;;5036640;28;20229;-80
2022/01/12 10:30:08;;;;;;;13.00;9.80;;;1.70;99.90;;;;;;5035725;28;20211;-79
2022/01/12 10:32:35;;;;;;;11.15;10.00;;;1.80;99.90;;;;;;5035857;28;20228;-79
2022/01/12 10:35:02;;;;;;;11.18;10.02;;;1.90;99.90;;;;;;5038187;28;20207;-82
2022/01/12 10:37:29;;;;;;;12.13;10.88;;;2.10;99.90;;;;;;5037574;28;20215;-82
2022/01/12 10:39:58;;;;;;;12.13;10.85;;;2.20;99.90;;;;;;5038939;28;20688;-82
2022/01/12 10:42:27;;;;;;;13.25;10.48;;;2.30;99.90;;;;;;5036556;28;20234;-82
2022/01/12 10:44:56;;;;;;;11.55;10.35;;;2.00;99.90;;;;;;5036150;28;20246;-82
2022/01/12 10:47:24;;;;;;;12.45;11.20;;;1.70;99.90;;;;;;5038195;28;20235;-82
2022/01/12 10:50:00;;;;;;;11.25;9.82;;;2.00;99.90;;;;;;5038402;28;20211;-82
2022/01/12 10:52:28;;;;;;;10.75;9.65;;;2.30;99.90;;;;;;5038077;28;20247;-82
2022/01/12 10:54:58;;;;;;;12.68;10.20;;;2.30;99.90;;;;;;5037167;28;20229;-82
2022/01/12 10:57:27;;;;;;;15.38;11.98;;;2.30;99.90;;;;;;5037296;28;20210;-82
2022/01/12 11:00:09;;;;;;;11.75;10.57;;;2.60;99.90;;;;;;5036941;28;20211;-82
2022/01/12 11:02:39;;;;;;;10.30;9.38;;;3.40;99.90;;;;;;5036721;28;20678;-82
2022/01/12 11:05:08;;;;;;;12.38;11.18;;;4.10;99.90;;;;;;5035948;28;20206;-79
2022/01/12 11:07:35;;;;;;;11.23;10.15;;;4.80;99.90;;;;;;5034385;28;20214;-80
2022/01/12 11:10:06;;;;;;;11.57;10.57;;;5.70;99.90;;;;;;5035461;28;20206;-80
2022/01/12 11:12:35;;;;;;;11.27;10.15;;;6.60;98.40;;;;;;5034034;28;20242;-80
2022/01/12 11:15:02;;;;;;;11.20;9.57;;;7.40;95.50;;;;;;5032744;28;20297;-80
2022/01/12 11:17:29;;;;;;;11.40;10.20;;;8.00;93.30;;;;;;5032688;28;20621;-80
2022/01/12 11:20:09;;;;;;;10.85;10.00;;;8.30;91.40;;;;;;5035604;28;20229;-80
2022/01/12 11:22:46;;;;;;;11.48;10.48;;;8.40;90.00;;;;;;5036519;28;20226;-81
2022/01/12 11:25:23;;;;;;;12.82;11.63;;;8.60;88.90;;;;;;5036585;28;20670;-80
2022/01/12 11:28:03;;;;;;;11.10;10.15;;;8.40;86.60;;;;;;5036476;28;20210;-80
2022/01/12 11:30:33;;;;;;;12.43;9.90;;;8.70;87.60;;;;;;5035733;28;20213;-81
2022/01/12 11:33:01;;;;;;;11.70;10.70;;;8.70;84.70;;;;;;5036550;28;20238;-80
2022/01/12 11:35:29;;;;;;;14.27;13.05;;;8.80;87.30;;;;;;5036282;28;20581;-81
2022/01/12 11:37:59;;;;;;;10.20;9.30;;;9.30;87.10;;;;;;5036211;28;20223;-81
2022/01/12 11:40:41;;;;;;;11.38;10.27;;;10.00;84.30;;;;;;5035777;28;20302;-80
2022/01/12 11:43:25;;;;;;;12.70;11.03;;;10.80;82.30;;;;;;5035773;28;20233;-81
2022/01/12 11:46:06;;;;;;;10.97;10.10;;;11.50;79.40;;;;;;5034469;28;20467;-81
2022/01/12 11:48:35;;;;;;;12.60;11.30;;;12.10;76.70;;;;;;5035966;28;20507;-81
2022/01/12 11:51:03;;;;;;;9.57;8.83;;;12.80;73.90;;;;;;5035753;28;20441;-81
2022/01/12 11:53:31;;;;;;;10.73;9.60;;;13.20;72.10;;;;;;5035559;28;20475;-81
2022/01/12 11:56:11;;;;;;;11.50;10.40;;;14.10;70.10;;;;;;5035538;28;20942;-81
2022/01/12 11:58:54;;;;;;;11.57;10.47;;;14.90;66.90;;;;;;5035721;28;20567;-80
2022/01/12 12:01:22;;;;;;;10.83;9.93;;;15.40;62.70;;;;;;5043074;28;20463;-81
2022/01/12 12:04:02;;;;;;;10.73;9.63;;;15.00;59.70;;;;;;5044730;28;20547;-81
2022/01/12 12:06:29;;;;;;;11.23;10.13;;;14.00;60.80;;;;;;5042321;28;20448;-82
2022/01/12 12:09:01;;;;;;;9.80;9.00;;;13.40;61.90;;;;;;5041552;28;20451;-81
2022/01/12 12:11:31;;;;;;;10.30;9.30;;;13.50;63.40;;;;;;5036967;28;20973;-80
2022/01/12 12:14:02;;;;;;;9.50;8.67;;;13.50;61.80;;;;;;5036359;28;20537;-81
2022/01/12 12:16:29;;;;;;;10.77;9.77;;;13.80;61.20;;;;;;5036707;28;20460;-80
2022/01/12 12:18:57;;;;;;;10.30;9.40;;;13.80;59.80;;;;;;5036702;28;20491;-80
2022/01/12 12:21:24;;;;;;;10.73;9.27;;;13.60;61.20;;;;;;5035991;28;20513;-80
2022/01/12 12:23:52;;;;;;;10.60;9.60;;;14.00;59.30;;;;;;5036583;28;20480;-79
2022/01/12 12:26:21;;;;;;;12.57;11.47;;;14.80;60.50;;;;;;5036423;28;20960;-79
2022/01/12 12:28:56;;;;;;;11.00;10.10;;;14.80;58.10;;;;;;5036863;28;20441;-81
2022/01/12 12:31:25;;;;;;;10.97;9.97;;;15.00;59.00;;;;;;5035267;28;21018;-80
2022/01/12 12:34:03;;;;;;;11.17;10.10;;;15.50;57.40;;;;;;5036307;28;20477;-80
2022/01/12 12:36:30;;;;;;;10.93;10.03;;;15.80;56.80;;;;;;5041647;28;20453;-81
2022/01/12 12:39:07;;;;;;;11.37;10.37;;;16.40;55.60;;;;;;5051907;28;20491;-80
2022/01/12 12:41:38;;;;;;;10.50;9.70;;;16.30;53.80;;;;;;5052815;28;20449;-79
2022/01/12 12:44:07;;;;;;;10.77;9.87;;;16.30;54.50;;;;;;5045197;28;20511;-81
2022/01/12 12:46:34;;;;;;;12.07;10.97;;;16.80;54.40;;;;;;5040968;28;20461;-81
2022/01/12 12:49:09;;;;;;;11.90;10.87;;;17.10;53.10;;;;;;5040464;28;20476;-81
2022/01/12 12:51:36;;;;;;;10.60;9.60;;;17.20;51.50;;;;;;5039880;28;20452;-81
2022/01/12 12:54:03;;;;;;;10.53;9.53;;;17.10;51.10;;;;;;5039973;28;20449;-82
2022/01/12 12:56:32;;;;;;;12.20;11.10;;;17.00;52.10;;;;;;5039425;28;20480;-82
2022/01/12 12:58:59;;;;;;;11.63;10.63;;;17.20;51.50;;;;;;5039300;28;21095;-82
2022/01/12 13:01:31;;;;;;;11.10;10.20;;;17.60;50.60;;;;;;5039398;28;20455;-82
2022/01/12 13:03:59;;;;;;;11.60;10.40;;;17.60;49.70;;;;;;5039631;28;20474;-80
2022/01/12 13:06:30;;;;;;;10.67;9.57;;;17.80;50.30;;;;;;5039065;28;20458;-82
2022/01/12 13:08:59;;;;;;;12.10;11.00;;;18.10;50.00;;;;;;5039886;28;20526;-82
2022/01/12 13:11:29;;;;;;;11.90;10.80;;;18.10;48.10;;;;;;5039651;28;20464;-81
2022/01/12 13:13:57;;;;;;;11.03;9.93;;;17.60;47.90;;;;;;5037958;28;20631;-80
2022/01/12 13:16:26;;;;;;;10.70;9.47;;;17.20;48.20;;;;;;5037269;28;20896;-80
2022/01/12 13:19:03;;;;;;;11.10;9.90;;;16.60;48.90;;;;;;5036582;28;20576;-80
2022/01/12 13:21:30;;;;;;;11.00;10.00;;;16.30;48.60;;;;;;5036199;28;20779;-80
2022/01/12 13:23:59;;;;;;;11.03;10.03;;;15.60;50.00;;;;;;5037142;28;20468;-80
2022/01/12 13:26:31;;;;;;;12.87;11.63;;;15.60;49.50;;;;;;5036015;28;20460;-79
2022/01/12 13:28:58;;;;;;;12.73;11.53;;;14.50;49.30;;;;;;5034815;28;20454;-79
2022/01/12 13:31:25;;;;;;;11.40;10.37;;;14.10;51.80;;;;;;5034585;28;20929;-79
2022/01/12 13:33:54;;;;;;;12.93;11.63;;;14.20;52.10;;;;;;5034872;28;20469;-79
2022/01/12 13:36:23;;;;;;;11.27;10.10;;;14.30;52.50;;;;;;5034694;28;20473;-79
2022/01/12 13:38:56;;;;;;;12.80;11.60;;;14.10;52.40;;;;;;5034719;28;20487;-80
2022/01/12 13:41:27;;;;;;;12.97;11.77;;;14.00;52.80;;;;;;5034077;28;20969;-80
2022/01/12 13:43:57;;;;;;;11.93;10.87;;;13.90;53.20;;;;;;5035344;28;20467;-80
2022/01/12 13:46:31;;;;;;;12.67;11.43;;;13.70;53.20;;;;;;5035814;28;20462;-80